sensor_id;sensor_type;location;lat;lon;timestamp;pressure;altitude;pressure_sealevel;temperature;humidity
21821;BME280;11073;48.586;12.066;2022-12-07T00:01:45;96360.66;;;4.31;72.44
21821;BME280;11073;48.586;12.066;2022-12-07T00:04:17;96366.44;;;4.34;72.39
21821;BME280;11073;48.586;12.066;2022-12-07T00:06:50;96361.94;;;4.35;72.40
21821;BME280;11073;48.586;12.066;2022-12-07T00:09:19;96368.91;;;4.29;72.42
21821;BME280;11073;48.586;12.066;2022-12-07T00:11:50;96370.13;;;4.27;72.38
21821;BME280;11073;48.586;12.066;2022-12-07T00:14:20;96367.44;;;4.27;72.43
21821;BME280;11073;48.586;12.066;2022-12-07T00:16:50;96355.47;;;4.23;72.44
21821;BME280;11073;48.586;12.066;2022-12-07T00:19:20;96366.22;;;4.29;72.63
21821;BME280;11073;48.586;12.066;2022-12-07T00:21:49;96361.91;;;4.28;72.54
21821;BME280;11073;48.586;12.066;2022-12-07T00:24:18;96353.88;;;4.28;72.48
21821;BME280;11073;48.586;12.066;2022-12-07T00:26:47;96350.75;;;4.31;72.46
21821;BME280;11073;48.586;12.066;2022-12-07T00:29:17;96354.06;;;4.33;72.45
21821;BME280;11073;48.586;12.066;2022-12-07T00:31:47;96355.91;;;4.33;72.49
21821;BME280;11073;48.586;12.066;2022-12-07T00:34:18;96351.38;;;4.33;72.50
21821;BME280;11073;48.586;12.066;2022-12-07T00:36:49;96345.19;;;4.33;72.60
21821;BME280;11073;48.586;12.066;2022-12-07T00:39:18;96353.66;;;4.30;72.43
21821;BME280;11073;48.586;12.066;2022-12-07T00:41:46;96355.28;;;4.24;72.29
21821;BME280;11073;48.586;12.066;2022-12-07T00:44:15;96349.91;;;4.24;72.35
21821;BME280;11073;48.586;12.066;2022-12-07T00:46:44;96355.28;;;4.24;72.39
21821;BME280;11073;48.586;12.066;2022-12-07T00:49:14;96359.81;;;4.24;72.53
21821;BME280;11073;48.586;12.066;2022-12-07T00:51:42;96348.69;;;4.20;72.37
21821;BME280;11073;48.586;12.066;2022-12-07T00:54:12;96352.19;;;4.21;72.51
21821;BME280;11073;48.586;12.066;2022-12-07T00:56:41;96356.91;;;4.19;72.52
21821;BME280;11073;48.586;12.066;2022-12-07T00:59:12;96353.19;;;4.20;72.49
21821;BME280;11073;48.586;12.066;2022-12-07T01:01:42;96337.50;;;4.10;72.32
21821;BME280;11073;48.586;12.066;2022-12-07T01:04:11;96349.88;;;4.18;72.52
21821;BME280;11073;48.586;12.066;2022-12-07T01:06:40;96356.28;;;4.17;72.45
21821;BME280;11073;48.586;12.066;2022-12-07T01:09:09;96342.81;;;4.03;72.47
21821;BME280;11073;48.586;12.066;2022-12-07T01:11:39;96358.94;;;4.10;72.32
21821;BME280;11073;48.586;12.066;2022-12-07T01:14:08;96316.38;;;3.87;72.47
21821;BME280;11073;48.586;12.066;2022-12-07T01:16:38;96353.56;;;4.10;72.58
21821;BME280;11073;48.586;12.066;2022-12-07T01:19:07;96361.63;;;4.10;72.54
21821;BME280;11073;48.586;12.066;2022-12-07T01:21:36;96363.22;;;4.04;72.53
21821;BME280;11073;48.586;12.066;2022-12-07T01:24:09;96358.31;;;4.08;72.62
21821;BME280;11073;48.586;12.066;2022-12-07T01:26:40;96368.41;;;4.06;72.50
21821;BME280;11073;48.586;12.066;2022-12-07T01:29:08;96366.72;;;4.05;72.51
21821;BME280;11073;48.586;12.066;2022-12-07T01:31:38;96360.75;;;4.03;72.61
21821;BME280;11073;48.586;12.066;2022-12-07T01:34:10;96356.44;;;4.02;72.59
21821;BME280;11073;48.586;12.066;2022-12-07T01:36:39;96363.44;;;4.03;72.66
21821;BME280;11073;48.586;12.066;2022-12-07T01:39:09;96362.81;;;4.01;72.64
21821;BME280;11073;48.586;12.066;2022-12-07T01:41:41;96365.50;;;4.01;72.79
21821;BME280;11073;48.586;12.066;2022-12-07T01:44:15;96354.78;;;4.01;72.90
21821;BME280;11073;48.586;12.066;2022-12-07T01:46:45;96351.06;;;4.02;72.94
21821;BME280;11073;48.586;12.066;2022-12-07T01:49:19;96352.31;;;3.99;72.89
21821;BME280;11073;48.586;12.066;2022-12-07T01:51:51;96333.72;;;3.91;72.95
21821;BME280;11073;48.586;12.066;2022-12-07T01:54:21;96354.97;;;3.99;72.85
21821;BME280;11073;48.586;12.066;2022-12-07T01:56:53;96341.34;;;3.94;72.94
21821;BME280;11073;48.586;12.066;2022-12-07T01:59:25;96348.59;;;4.00;72.98
21821;BME280;11073;48.586;12.066;2022-12-07T02:01:55;96343.25;;;4.00;73.11
21821;BME280;11073;48.586;12.066;2022-12-07T02:04:24;96348.59;;;4.00;73.01
21821;BME280;11073;48.586;12.066;2022-12-07T02:06:54;96343.25;;;4.00;72.93
21821;BME280;11073;48.586;12.066;2022-12-07T02:09:23;96348.81;;;3.99;72.91
21821;BME280;11073;48.586;12.066;2022-12-07T02:11:54;96348.16;;;3.97;72.90
21821;BME280;11073;48.586;12.066;2022-12-07T02:14:23;96355.16;;;3.98;73.01
21821;BME280;11073;48.586;12.066;2022-12-07T02:17:03;96343.00;;;3.95;72.96
21821;BME280;11073;48.586;12.066;2022-12-07T02:20:13;96346.50;;;3.96;73.04
21821;BME280;11073;48.586;12.066;2022-12-07T02:23:12;96345.69;;;3.95;73.04
21821;BME280;11073;48.586;12.066;2022-12-07T02:26:02;96353.50;;;3.97;73.07
21821;BME280;11073;48.586;12.066;2022-12-07T02:28:53;96336.81;;;3.95;72.97
21821;BME280;11073;48.586;12.066;2022-12-07T02:31:25;96340.09;;;3.90;73.13
21821;BME280;11073;48.586;12.066;2022-12-07T02:34:00;96344.84;;;3.95;73.17
21821;BME280;11073;48.586;12.066;2022-12-07T02:36:37;96345.88;;;3.94;73.06
21821;BME280;11073;48.586;12.066;2022-12-07T02:39:12;96328.75;;;3.88;73.07
21821;BME280;11073;48.586;12.066;2022-12-07T02:41:47;96344.28;;;3.99;72.96
21821;BME280;11073;48.586;12.066;2022-12-07T02:44:22;96341.59;;;3.99;73.05
21821;BME280;11073;48.586;12.066;2022-12-07T02:46:54;96333.34;;;4.01;73.12
21821;BME280;11073;48.586;12.066;2022-12-07T02:49:24;96335.81;;;4.02;73.19
21821;BME280;11073;48.586;12.066;2022-12-07T02:51:54;96336.22;;;3.99;73.14
21821;BME280;11073;48.586;12.066;2022-12-07T02:54:23;96338.69;;;4.01;73.01
21821;BME280;11073;48.586;12.066;2022-12-07T02:56:57;96342.41;;;4.00;73.01
21821;BME280;11073;48.586;12.066;2022-12-07T02:59:40;96334.56;;;3.98;73.10
21821;BME280;11073;48.586;12.066;2022-12-07T03:02:21;96332.28;;;3.95;73.09
21821;BME280;11073;48.586;12.066;2022-12-07T03:05:02;96334.56;;;3.98;73.04
21821;BME280;11073;48.586;12.066;2022-12-07T03:07:39;96335.41;;;3.99;73.05
21821;BME280;11073;48.586;12.066;2022-12-07T03:10:16;96333.94;;;3.96;73.04
21821;BME280;11073;48.586;12.066;2022-12-07T03:12:55;96319.47;;;3.91;73.14
21821;BME280;11073;48.586;12.066;2022-12-07T03:15:32;96329.81;;;3.94;73.07
21821;BME280;11073;48.586;12.066;2022-12-07T03:18:03;96327.13;;;3.94;73.08
21821;BME280;11073;48.586;12.066;2022-12-07T03:20:35;96324.00;;;3.90;73.00
21821;BME280;11073;48.586;12.066;2022-12-07T03:23:07;96325.47;;;3.86;73.08
21821;BME280;11073;48.586;12.066;2022-12-07T03:25:39;96324.84;;;3.84;73.18
21821;BME280;11073;48.586;12.066;2022-12-07T03:28:09;96325.84;;;3.83;73.03
21821;BME280;11073;48.586;12.066;2022-12-07T03:30:45;96312.25;;;3.78;73.06
21821;BME280;11073;48.586;12.066;2022-12-07T03:33:20;96322.78;;;3.86;73.22
21821;BME280;11073;48.586;12.066;2022-12-07T03:35:55;96320.09;;;3.86;73.14
21821;BME280;11073;48.586;12.066;2022-12-07T03:38:31;96324.44;;;3.87;73.09
21821;BME280;11073;48.586;12.066;2022-12-07T03:41:06;96306.06;;;3.77;73.05
21821;BME280;11073;48.586;12.066;2022-12-07T03:43:36;96318.63;;;3.83;73.10
21821;BME280;11073;48.586;12.066;2022-12-07T03:46:17;96323.81;;;3.85;73.05
21821;BME280;11073;48.586;12.066;2022-12-07T03:48:55;96320.31;;;3.84;73.09
21821;BME280;11073;48.586;12.066;2022-12-07T03:51:31;96314.94;;;3.84;73.04
21821;BME280;11073;48.586;12.066;2022-12-07T03:54:09;96313.72;;;3.87;73.10
21821;BME280;11073;48.586;12.066;2022-12-07T03:56:39;96310.22;;;3.86;73.09
21821;BME280;11073;48.586;12.066;2022-12-07T03:59:09;96313.28;;;3.83;73.05
21821;BME280;11073;48.586;12.066;2022-12-07T04:01:42;96307.53;;;3.86;73.07
21821;BME280;11073;48.586;12.066;2022-12-07T04:04:11;96309.38;;;3.86;73.02
21821;BME280;11073;48.586;12.066;2022-12-07T04:06:40;96318.25;;;3.86;72.95
21821;BME280;11073;48.586;12.066;2022-12-07T04:09:09;96311.63;;;3.82;73.05
21821;BME280;11073;48.586;12.066;2022-12-07T04:11:38;96318.84;;;3.82;73.11
21821;BME280;11073;48.586;12.066;2022-12-07T04:14:06;96315.53;;;3.80;73.10
21821;BME280;11073;48.586;12.066;2022-12-07T04:16:50;96309.94;;;3.75;73.03
21821;BME280;11073;48.586;12.066;2022-12-07T04:19:21;96319.81;;;3.74;73.12
21821;BME280;11073;48.586;12.066;2022-12-07T04:21:50;96314.88;;;3.71;73.05
21821;BME280;11073;48.586;12.066;2022-12-07T04:24:19;96313.41;;;3.69;73.06
21821;BME280;11073;48.586;12.066;2022-12-07T04:26:48;96313.41;;;3.69;73.31
21821;BME280;11073;48.586;12.066;2022-12-07T04:29:17;96307.22;;;3.68;73.35
21821;BME280;11073;48.586;12.066;2022-12-07T04:31:48;96311.56;;;3.69;73.21
21821;BME280;11073;48.586;12.066;2022-12-07T04:34:18;96312.38;;;3.63;73.22
21821;BME280;11073;48.586;12.066;2022-12-07T04:36:47;96314.22;;;3.63;73.30
21821;BME280;11073;48.586;12.066;2022-12-07T04:39:20;96306.00;;;3.64;73.41
21821;BME280;11073;48.586;12.066;2022-12-07T04:41:49;96302.91;;;3.67;73.44
21821;BME280;11073;48.586;12.066;2022-12-07T04:44:18;96308.66;;;3.64;73.29
21821;BME280;11073;48.586;12.066;2022-12-07T04:46:49;96309.88;;;3.62;73.42
21821;BME280;11073;48.586;12.066;2022-12-07T04:49:18;96308.00;;;3.62;73.48
21821;BME280;11073;48.586;12.066;2022-12-07T04:51:47;96307.63;;;3.65;73.43
21821;BME280;11073;48.586;12.066;2022-12-07T04:54:18;96302.28;;;3.65;73.41
21821;BME280;11073;48.586;12.066;2022-12-07T04:56:46;96296.94;;;3.65;73.45
21821;BME280;11073;48.586;12.066;2022-12-07T04:59:16;96301.47;;;3.65;73.51
21821;BME280;11073;48.586;12.066;2022-12-07T05:01:45;96304.09;;;3.58;73.41
21821;BME280;11073;48.586;12.066;2022-12-07T05:04:15;96311.31;;;3.57;73.45
21821;BME280;11073;48.586;12.066;2022-12-07T05:06:44;96309.00;;;3.54;73.50
21821;BME280;11073;48.586;12.066;2022-12-07T05:09:13;96292.72;;;3.49;73.59
21821;BME280;11073;48.586;12.066;2022-12-07T05:11:42;96312.53;;;3.55;73.69
21821;BME280;11073;48.586;12.066;2022-12-07T05:14:13;96303.66;;;3.54;73.56
21821;BME280;11073;48.586;12.066;2022-12-07T05:16:43;96307.34;;;3.53;73.63
21821;BME280;11073;48.586;12.066;2022-12-07T05:19:14;96305.50;;;3.54;73.64
21821;BME280;11073;48.586;12.066;2022-12-07T05:21:43;96299.53;;;3.52;73.56
21821;BME280;11073;48.586;12.066;2022-12-07T05:24:13;96314.78;;;3.51;73.65
21821;BME280;11073;48.586;12.066;2022-12-07T05:26:43;96309.63;;;3.50;73.67
21821;BME280;11073;48.586;12.066;2022-12-07T05:29:13;96303.25;;;3.51;73.59
21821;BME280;11073;48.586;12.066;2022-12-07T05:31:43;96297.63;;;3.46;73.49
21821;BME280;11073;48.586;12.066;2022-12-07T05:34:12;96304.69;;;3.53;73.64
21821;BME280;11073;48.586;12.066;2022-12-07T05:36:43;96305.72;;;3.52;73.56
21821;BME280;11073;48.586;12.066;2022-12-07T05:39:12;96303.03;;;3.52;73.54
21821;BME280;11073;48.586;12.066;2022-12-07T05:41:41;96292.72;;;3.49;73.38
21821;BME280;11073;48.586;12.066;2022-12-07T05:44:27;96303.44;;;3.49;73.51
21821;BME280;11073;48.586;12.066;2022-12-07T05:46:56;96306.75;;;3.51;73.56
21821;BME280;11073;48.586;12.066;2022-12-07T05:49:25;96303.03;;;3.52;73.51
21821;BME280;11073;48.586;12.066;2022-12-07T05:51:55;96306.94;;;3.50;73.49
21821;BME280;11073;48.586;12.066;2022-12-07T05:54:24;96313.69;;;3.46;73.47
21821;BME280;11073;48.586;12.066;2022-12-07T05:56:53;96310.00;;;3.47;73.41
21821;BME280;11073;48.586;12.066;2022-12-07T05:59:23;96312.06;;;3.45;73.35
21821;BME280;11073;48.586;12.066;2022-12-07T06:01:51;96293.47;;;3.37;73.49
21821;BME280;11073;48.586;12.066;2022-12-07T06:04:22;96309.81;;;3.48;73.37
21821;BME280;11073;48.586;12.066;2022-12-07T06:06:52;96303.00;;;3.46;73.41
21821;BME280;11073;48.586;12.066;2022-12-07T06:09:23;96297.00;;;3.44;73.44
21821;BME280;11073;48.586;12.066;2022-12-07T06:11:52;96296.19;;;3.43;73.27
21821;BME280;11073;48.586;12.066;2022-12-07T06:14:39;96293.06;;;3.40;73.38
21821;BME280;11073;48.586;12.066;2022-12-07T06:17:08;96290.59;;;3.38;73.22
21821;BME280;11073;48.586;12.066;2022-12-07T06:19:37;96294.91;;;3.39;73.46
21821;BME280;11073;48.586;12.066;2022-12-07T06:22:07;96300.06;;;3.34;73.23
21821;BME280;11073;48.586;12.066;2022-12-07T06:24:38;96299.22;;;3.34;73.28
21821;BME280;11073;48.586;12.066;2022-12-07T06:27:08;96298.59;;;3.31;73.15
21821;BME280;11073;48.586;12.066;2022-12-07T06:29:37;96303.72;;;3.33;73.32
21821;BME280;11073;48.586;12.066;2022-12-07T06:32:06;96294.25;;;3.30;73.04
21821;BME280;11073;48.586;12.066;2022-12-07T06:34:35;96292.81;;;3.28;73.13
21821;BME280;11073;48.586;12.066;2022-12-07T06:37:04;96288.44;;;3.20;73.04
21821;BME280;11073;48.586;12.066;2022-12-07T06:39:32;96294.00;;;3.25;73.05
21821;BME280;11073;48.586;12.066;2022-12-07T06:42:03;96286.19;;;3.24;73.09
21821;BME280;11073;48.586;12.066;2022-12-07T06:44:31;96295.44;;;3.21;73.03
21821;BME280;11073;48.586;12.066;2022-12-07T06:47:00;96285.97;;;3.19;73.17
21821;BME280;11073;48.586;12.066;2022-12-07T06:49:49;96293.34;;;3.17;73.10
21821;BME280;11073;48.586;12.066;2022-12-07T06:52:18;96293.34;;;3.17;73.09
21821;BME280;11073;48.586;12.066;2022-12-07T06:54:47;96301.38;;;3.17;73.08
21821;BME280;11073;48.586;12.066;2022-12-07T06:57:16;96297.88;;;3.16;73.16
21821;BME280;11073;48.586;12.066;2022-12-07T06:59:47;96293.91;;;3.06;73.09
21821;BME280;11073;48.586;12.066;2022-12-07T07:02:16;96305.91;;;3.16;73.13
21821;BME280;11073;48.586;12.066;2022-12-07T07:04:45;96312.28;;;3.15;72.99
21821;BME280;11073;48.586;12.066;2022-12-07T07:07:14;96316.19;;;3.13;72.99
21821;BME280;11073;48.586;12.066;2022-12-07T07:09:43;96311.00;;;3.11;72.98
21821;BME280;11073;48.586;12.066;2022-12-07T07:12:11;96321.69;;;3.11;72.97
21821;BME280;11073;48.586;12.066;2022-12-07T07:14:41;96322.72;;;3.10;73.00
21821;BME280;11073;48.586;12.066;2022-12-07T07:17:10;96327.66;;;3.07;73.11
21821;BME280;11073;48.586;12.066;2022-12-07T07:19:39;96328.66;;;3.06;73.19
21821;BME280;11073;48.586;12.066;2022-12-07T07:22:08;96315.03;;;3.00;73.22
21821;BME280;11073;48.586;12.066;2022-12-07T07:24:37;96330.16;;;3.15;73.19
21821;BME280;11073;48.586;12.066;2022-12-07T07:27:06;96332.44;;;3.18;73.18
21821;BME280;11073;48.586;12.066;2022-12-07T07:29:34;96333.94;;;3.20;73.18
21821;BME280;11073;48.586;12.066;2022-12-07T07:32:04;96343.19;;;3.24;73.09
21821;BME280;11073;48.586;12.066;2022-12-07T07:34:34;96342.00;;;3.27;73.03
21821;BME280;11073;48.586;12.066;2022-12-07T07:37:03;96330.50;;;3.33;73.21
21821;BME280;11073;48.586;12.066;2022-12-07T07:39:32;96337.94;;;3.38;73.04
21821;BME280;11073;48.586;12.066;2022-12-07T07:42:01;96346.22;;;3.43;72.99
21821;BME280;11073;48.586;12.066;2022-12-07T07:44:32;96348.91;;;3.43;72.90
21821;BME280;11073;48.586;12.066;2022-12-07T07:47:02;96352.41;;;3.43;72.91
21821;BME280;11073;48.586;12.066;2022-12-07T07:49:32;96357.75;;;3.43;72.87
21821;BME280;11073;48.586;12.066;2022-12-07T07:52:01;96353.44;;;3.42;72.86
21821;BME280;11073;48.586;12.066;2022-12-07T07:54:31;96353.63;;;3.41;72.79
21821;BME280;11073;48.586;12.066;2022-12-07T07:56:59;96363.09;;;3.43;72.73
21821;BME280;11073;48.586;12.066;2022-12-07T07:59:28;96357.34;;;3.46;72.81
21821;BME280;11073;48.586;12.066;2022-12-07T08:01:57;96361.88;;;3.46;72.79
21821;BME280;11073;48.586;12.066;2022-12-07T08:04:26;96361.66;;;3.47;72.65
21821;BME280;11073;48.586;12.066;2022-12-07T08:06:56;96366.84;;;3.49;72.59
21821;BME280;11073;48.586;12.066;2022-12-07T08:09:25;96368.88;;;3.47;72.65
21821;BME280;11073;48.586;12.066;2022-12-07T08:11:54;96358.53;;;3.37;72.57
21821;BME280;11073;48.586;12.066;2022-12-07T08:14:23;96369.13;;;3.52;72.57
21821;BME280;11073;48.586;12.066;2022-12-07T08:16:53;96373.63;;;3.79;72.77
21821;BME280;11073;48.586;12.066;2022-12-07T08:19:22;96370.47;;;4.10;72.67
21821;BME280;11073;48.586;12.066;2022-12-07T08:21:51;96367.47;;;4.33;72.44
21821;BME280;11073;48.586;12.066;2022-12-07T08:24:22;96369.63;;;4.58;72.23
21821;BME280;11073;48.586;12.066;2022-12-07T08:26:51;96375.63;;;4.66;72.00
21821;BME280;11073;48.586;12.066;2022-12-07T08:29:19;96374.78;;;4.66;71.68
21821;BME280;11073;48.586;12.066;2022-12-07T08:31:48;96369.44;;;4.92;71.40
21821;BME280;11073;48.586;12.066;2022-12-07T08:34:17;96362.88;;;5.02;71.09
21821;BME280;11073;48.586;12.066;2022-12-07T08:36:46;96368.66;;;5.32;71.09
21821;BME280;11073;48.586;12.066;2022-12-07T08:39:14;96363.28;;;5.25;70.47
21821;BME280;11073;48.586;12.066;2022-12-07T08:41:59;96362.06;;;5.08;69.94
21821;BME280;11073;48.586;12.066;2022-12-07T08:44:28;96359.97;;;5.03;69.85
21821;BME280;11073;48.586;12.066;2022-12-07T08:46:58;96359.56;;;4.99;69.67
21821;BME280;11073;48.586;12.066;2022-12-07T08:49:32;96368.63;;;5.05;69.53
21821;BME280;11073;48.586;12.066;2022-12-07T08:52:04;96374.25;;;5.23;69.38
21821;BME280;11073;48.586;12.066;2022-12-07T08:54:34;96364.09;;;5.52;69.14
21821;BME280;11073;48.586;12.066;2022-12-07T08:57:06;96360.94;;;5.81;68.78
21821;BME280;11073;48.586;12.066;2022-12-07T08:59:36;96370.66;;;5.76;68.32
21821;BME280;11073;48.586;12.066;2022-12-07T09:02:05;96365.09;;;5.64;67.80
21821;BME280;11073;48.586;12.066;2022-12-07T09:04:34;96347.56;;;5.42;67.83
21821;BME280;11073;48.586;12.066;2022-12-07T09:07:03;96363.44;;;5.70;67.71
21821;BME280;11073;48.586;12.066;2022-12-07T09:09:32;96369.00;;;6.01;67.29
21821;BME280;11073;48.586;12.066;2022-12-07T09:12:00;96351.00;;;6.02;67.13
21821;BME280;11073;48.586;12.066;2022-12-07T09:14:31;96371.75;;;6.40;66.81
21821;BME280;11073;48.586;12.066;2022-12-07T09:17:05;96376.81;;;6.61;66.37
21821;BME280;11073;48.586;12.066;2022-12-07T09:19:34;96379.88;;;6.64;65.93
21821;BME280;11073;48.586;12.066;2022-12-07T09:22:03;96383.72;;;6.82;65.67
21821;BME280;11073;48.586;12.066;2022-12-07T09:24:33;96375.78;;;6.94;65.17
21821;BME280;11073;48.586;12.066;2022-12-07T09:27:01;96379.03;;;7.02;64.82
21821;BME280;11073;48.586;12.066;2022-12-07T09:29:31;96382.50;;;7.09;64.62
21821;BME280;11073;48.586;12.066;2022-12-07T09:32:00;96380.34;;;7.25;64.31
21821;BME280;11073;48.586;12.066;2022-12-07T09:34:36;96373.66;;;7.52;64.02
21821;BME280;11073;48.586;12.066;2022-12-07T09:37:05;96373.81;;;7.39;63.25
21821;BME280;11073;48.586;12.066;2022-12-07T09:39:37;96378.25;;;6.95;62.97
21821;BME280;11073;48.586;12.066;2022-12-07T09:42:24;96365.63;;;6.57;62.84
21821;BME280;11073;48.586;12.066;2022-12-07T09:44:56;96368.06;;;6.27;62.56
21821;BME280;11073;48.586;12.066;2022-12-07T09:47:26;96367.72;;;6.04;62.51
21821;BME280;11073;48.586;12.066;2022-12-07T09:50:00;96354.53;;;5.89;62.52
21821;BME280;11073;48.586;12.066;2022-12-07T09:52:32;96361.56;;;5.84;62.53
21821;BME280;11073;48.586;12.066;2022-12-07T09:55:11;96364.25;;;5.77;62.45
21821;BME280;11073;48.586;12.066;2022-12-07T09:57:41;96355.59;;;5.68;62.35
21821;BME280;11073;48.586;12.066;2022-12-07T10:00:14;96351.06;;;5.62;62.34
21821;BME280;11073;48.586;12.066;2022-12-07T10:02:47;96353.97;;;5.61;62.47
21821;BME280;11073;48.586;12.066;2022-12-07T10:05:18;96353.75;;;5.56;62.46
21821;BME280;11073;48.586;12.066;2022-12-07T10:07:51;96341.38;;;5.54;62.41
21821;BME280;11073;48.586;12.066;2022-12-07T10:10:25;96333.09;;;5.56;62.40
21821;BME280;11073;48.586;12.066;2022-12-07T10:12:58;96341.34;;;5.61;62.29
21821;BME280;11073;48.586;12.066;2022-12-07T10:15:48;96343.84;;;5.49;62.32
21821;BME280;11073;48.586;12.066;2022-12-07T10:18:29;96329.59;;;5.42;62.35
21821;BME280;11073;48.586;12.066;2022-12-07T10:21:19;96333.16;;;5.36;62.15
21821;BME280;11073;48.586;12.066;2022-12-07T10:24:00;96324.44;;;5.47;62.35
21821;BME280;11073;48.586;12.066;2022-12-07T10:26:33;96330.84;;;5.40;62.38
21821;BME280;11073;48.586;12.066;2022-12-07T10:29:14;96324.22;;;5.56;62.54
21821;BME280;11073;48.586;12.066;2022-12-07T10:31:46;96325.25;;;5.54;62.30
21821;BME280;11073;48.586;12.066;2022-12-07T10:34:21;96327.72;;;5.49;62.21
21821;BME280;11073;48.586;12.066;2022-12-07T10:36:53;96330.00;;;5.66;62.25
21821;BME280;11073;48.586;12.066;2022-12-07T10:39:23;96323.31;;;5.88;62.27
21821;BME280;11073;48.586;12.066;2022-12-07T10:41:56;96332.75;;;6.17;62.14
21821;BME280;11073;48.586;12.066;2022-12-07T10:44:27;96330.25;;;6.60;62.00
21821;BME280;11073;48.586;12.066;2022-12-07T10:47:07;96335.84;;;6.90;61.58
21821;BME280;11073;48.586;12.066;2022-12-07T10:50:08;96321.72;;;6.95;61.26
21821;BME280;11073;48.586;12.066;2022-12-07T10:53:05;96325.59;;;7.06;60.89
21821;BME280;11073;48.586;12.066;2022-12-07T10:55:52;96326.75;;;7.41;60.64
21821;BME280;11073;48.586;12.066;2022-12-07T10:58:35;96321.09;;;7.68;60.64
21821;BME280;11073;48.586;12.066;2022-12-07T11:01:13;96311.22;;;7.62;60.19
21821;BME280;11073;48.586;12.066;2022-12-07T11:03:55;96317.59;;;7.42;59.95
21821;BME280;11073;48.586;12.066;2022-12-07T11:06:35;96311.09;;;7.32;59.76
21821;BME280;11073;48.586;12.066;2022-12-07T11:09:28;96315.19;;;7.09;59.57
21821;BME280;11073;48.586;12.066;2022-12-07T11:12:31;96311.06;;;6.82;59.57
21821;BME280;11073;48.586;12.066;2022-12-07T11:15:13;96304.56;;;6.64;59.54
21821;BME280;11073;48.586;12.066;2022-12-07T11:17:49;96298.16;;;6.59;59.81
21821;BME280;11073;48.586;12.066;2022-12-07T11:20:34;96289.16;;;6.47;59.83
21821;BME280;11073;48.586;12.066;2022-12-07T11:23:14;96292.31;;;6.37;59.86
21821;BME280;11073;48.586;12.066;2022-12-07T11:25:52;96288.44;;;6.26;59.97
21821;BME280;11073;48.586;12.066;2022-12-07T11:28:32;96289.28;;;6.20;59.80
21821;BME280;11073;48.586;12.066;2022-12-07T11:31:12;96288.53;;;6.06;59.48
21821;BME280;11073;48.586;12.066;2022-12-07T11:33:46;96289.63;;;5.92;59.38
21821;BME280;11073;48.586;12.066;2022-12-07T11:36:33;96277.88;;;5.80;59.19
21821;BME280;11073;48.586;12.066;2022-12-07T11:39:23;96281.16;;;5.82;59.09
21821;BME280;11073;48.586;12.066;2022-12-07T11:42:00;96280.56;;;5.80;59.11
21821;BME280;11073;48.586;12.066;2022-12-07T11:44:34;96274.78;;;5.76;59.15
21821;BME280;11073;48.586;12.066;2022-12-07T11:47:08;96268.22;;;5.66;58.96
21821;BME280;11073;48.586;12.066;2022-12-07T11:49:42;96277.09;;;5.66;59.00
21821;BME280;11073;48.586;12.066;2022-12-07T11:52:20;96273.97;;;5.69;59.05
21821;BME280;11073;48.586;12.066;2022-12-07T11:54:52;96270.66;;;5.74;59.09
21821;BME280;11073;48.586;12.066;2022-12-07T11:57:27;96269.22;;;5.71;58.88
21821;BME280;11073;48.586;12.066;2022-12-07T12:00:01;96269.88;;;5.67;58.96
21821;BME280;11073;48.586;12.066;2022-12-07T12:02:36;96268.41;;;5.64;58.91
21821;BME280;11073;48.586;12.066;2022-12-07T12:05:13;96268.59;;;5.69;59.06
21821;BME280;11073;48.586;12.066;2022-12-07T12:07:48;96266.34;;;5.66;58.89
21821;BME280;11073;48.586;12.066;2022-12-07T12:10:52;96265.72;;;5.64;59.00
21821;BME280;11073;48.586;12.066;2022-12-07T12:13:36;96251.94;;;5.47;58.77
21821;BME280;11073;48.586;12.066;2022-12-07T12:19:32;96262.69;;;5.41;59.01
21821;BME280;11073;48.586;12.066;2022-12-07T12:22:10;96253.81;;;5.40;58.99
21821;BME280;11073;48.586;12.066;2022-12-07T12:24:43;96258.38;;;5.40;58.92
21821;BME280;11073;48.586;12.066;2022-12-07T12:27:23;96253.22;;;5.32;58.84
21821;BME280;11073;48.586;12.066;2022-12-07T12:29:55;96247.63;;;5.33;58.94
21821;BME280;11073;48.586;12.066;2022-12-07T12:32:33;96248.25;;;5.35;59.16
21821;BME280;11073;48.586;12.066;2022-12-07T12:35:27;96243.28;;;5.39;59.03
21821;BME280;11073;48.586;12.066;2022-12-07T12:38:26;96251.56;;;5.37;59.16
21821;BME280;11073;48.586;12.066;2022-12-07T12:40:57;96245.38;;;5.30;59.10
21821;BME280;11073;48.586;12.066;2022-12-07T12:43:47;96250.31;;;5.33;59.26
21821;BME280;11073;48.586;12.066;2022-12-07T12:46:48;96245.16;;;5.38;59.44
21821;BME280;11073;48.586;12.066;2022-12-07T12:53:02;96251.81;;;5.29;59.42
21821;BME280;11073;48.586;12.066;2022-12-07T12:58:41;96242.28;;;5.20;59.57
21821;BME280;11073;48.586;12.066;2022-12-07T13:01:44;96243.13;;;5.14;59.43
21821;BME280;11073;48.586;12.066;2022-12-07T13:04:38;96238.63;;;5.08;59.57
21821;BME280;11073;48.586;12.066;2022-12-07T13:07:13;96243.56;;;5.11;59.56
21821;BME280;11073;48.586;12.066;2022-12-07T13:10:02;96240.06;;;5.10;59.63
21821;BME280;11073;48.586;12.066;2022-12-07T13:12:31;96233.25;;;5.08;59.81
21821;BME280;11073;48.586;12.066;2022-12-07T13:15:01;96235.50;;;5.11;59.63
21821;BME280;11073;48.586;12.066;2022-12-07T13:17:57;96227.88;;;5.14;59.82
21821;BME280;11073;48.586;12.066;2022-12-07T13:20:48;96231.19;;;5.10;59.69
21821;BME280;11073;48.586;12.066;2022-12-07T13:23:20;96225.38;;;5.06;59.79
21821;BME280;11073;48.586;12.066;2022-12-07T13:25:55;96222.72;;;5.06;59.86
21821;BME280;11073;48.586;12.066;2022-12-07T13:28:26;96221.06;;;5.12;59.99
21821;BME280;11073;48.586;12.066;2022-12-07T13:31:11;96219.59;;;5.16;60.03
21821;BME280;11073;48.586;12.066;2022-12-07T13:33:43;96222.06;;;5.17;59.94
21821;BME280;11073;48.586;12.066;2022-12-07T13:36:19;96223.34;;;5.15;59.89
21821;BME280;11073;48.586;12.066;2022-12-07T13:38:53;96217.16;;;5.14;59.98
21821;BME280;11073;48.586;12.066;2022-12-07T13:41:24;96216.94;;;5.16;60.06
21821;BME280;11073;48.586;12.066;2022-12-07T13:44:00;96217.94;;;5.21;60.08